weather.gov     
National Weather Service

Terminal Aerodrome Forecast
NWS Homepage
This page is being discontinued on March 12, 2014.
The same data is available at this site. Please update your bookmarks.
Thank you, and we apologize for the inconvenience.
Please send an email to SR-SRH.Webmaster@noaa.gov with any concerns.


Current Version
Previous Version:    01  02  03  04  05  06  07  08  09  10  11  12  13  14  15  16  17  18  19  20  21  22  23  24  25  26  27  28  29  30  
   31  32  33  34  35  36  37  38  39  40  41  
[Printable]
436
FTUS42 KTBW 020900 AAA
TAFRSW
TAF AMD
KRSW 020913Z 0209/0306 00000KT P6SM FEW005 SCT020 SCT250
      TEMPO 0209/0211 BKN020
     FM021800 28005KT P6SM VCTS SCT035CB
     FM022200 28006KT P6SM VCTS SCT045CB BKN250
     FM030000 29004KT P6SM BKN040 BKN250
     FM030300 00000KT P6SM FEW005 SCT040 SCT120=


U.S. Dept. of Commerce
NOAA National Weather Service
1325 East West Highway
Silver Spring, MD 20910
E-mail: w-nws.webmaster@noaa.gov
Page last modified: May 16, 2007
NATIONAL WEATHER SERVICE: for Safety, for Work, for Fun - FOR LIFE